Carmo da Cachoeira, Brazil
Current Conditions -  °F | °C
As of 5:00 PM on Sunday 21 Dec 2014 (Local Time) from SBGW Reporting Station
Scattered Clouds Scattered Clouds  
Wind Chill: 88°   Ceiling: Unl
Heat Index: 89°   Visibility: 6mi
Dew Point: 64°   Wind: 7mph
Humidity: 46%   Direction: 40°NE
Pressure: 29.8"   Gusts: NA
Location:  21.46°S, 45.22°W
Report Text: SBGW 211900Z 04006KT 320V080 9999 SCT030 FEW033TCU SCT100 31/18 Q1009
Loading
Personal Weather Stations






























Interactive Weather Map New forecast layout! Learn more

10-Day Weather Forecast

Advertisements
Track Severe Weather on mobile